ADDS METAR Data INFO
IDs: Format: Raw Decoded Include TAF

Data at: 0933 UTC 11 Dec 2017

METAR for:KCTY (Cross City Arpt, FL, US)
Text:KCTY 110915Z AUTO 00000KT 10SM CLR M02/M03 A3036 RMK AO2 T10201027
Temperature: -2.0°C ( 28°F)
Dewpoint: -2.7°C ( 27°F) [RH = 95%]
Pressure (altimeter):30.36 inches Hg (1028.2 mb)
Winds:calm
Visibility:10 or more sm (16+ km)
Ceiling:at least 12,000 feet AGL
Clouds:sky clear below 12,000 feet AGL
QC Flag:automated observation with no human augmentation